Time;durP1;ratioP1;P1;durP2;ratioP2;P2;SDS_P1;SDS_P2;PMS_P1;PMS_P2;Temp;Humidity;BMP_temperature;BMP_pressure;BME280_temperature;BME280_humidity;BME280_pressure;Samples;Min_cycle;Max_cycle;Signal;HPM_P1;HPM_P2
2024/03/19 00:00:14;;;;;;;;;;;;;;;9.35;100.00;92605.53;5025740;28;19928;-75
2024/03/19 00:02:39;;;;;;;;;;;;;;;9.31;100.00;92606.19;5023493;28;20020;-75
2024/03/19 00:05:05;;;;;;;;;;;;;;;9.19;100.00;92606.91;5025921;28;20004;-75
2024/03/19 00:07:30;;;;;;;;;;;;;;;9.19;100.00;92603.56;5026308;28;19920;-75
2024/03/19 00:09:56;;;;;;;;;;;;;;;9.09;100.00;92599.72;5026987;28;19920;-75
2024/03/19 00:12:22;;;;;;;;;;;;;;;9.13;100.00;92594.16;5028837;28;19921;-75
2024/03/19 00:14:55;;;;;;;;;;;;;;;9.12;100.00;92592.59;5026893;28;19917;-76
2024/03/19 00:17:23;;;;;;;;;;;;;;;9.07;100.00;92575.31;5026458;28;19921;-76
2024/03/19 00:19:48;;;;;;;;;;;;;;;9.13;100.00;92579.59;5026335;28;20385;-75
2024/03/19 00:22:13;;;;;;;;;;;;;;;9.16;100.00;92584.25;5025091;28;19928;-75
2024/03/19 00:24:39;;;;;;;;;;;;;;;9.08;100.00;92590.47;5025467;28;20388;-75
2024/03/19 00:27:04;;;;;;;;;;;;;;;9.06;100.00;92589.13;5026804;28;19917;-75
2024/03/19 00:29:30;;;;;;;;;;;;;;;9.16;100.00;92584.25;5023508;28;19924;-75
2024/03/19 00:31:55;;;;;;;;;;;;;;;9.31;100.00;92590.81;5027967;28;19913;-75
2024/03/19 00:34:21;;;;;;;;;;;;;;;9.39;100.00;92590.47;5025960;28;19917;-75
2024/03/19 00:36:46;;;;;;;;;;;;;;;9.43;100.00;92583.94;5026546;28;20069;-75
2024/03/19 00:39:12;;;;;;;;;;;;;;;9.49;100.00;92584.81;5023920;28;19963;-76
2024/03/19 00:41:38;;;;;;;;;;;;;;;9.53;100.00;92585.97;5024091;28;19956;-75
2024/03/19 00:44:04;;;;;;;;;;;;;;;9.38;100.00;92577.88;5024262;28;20010;-75
2024/03/19 00:46:30;;;;;;;;;;;;;;;9.35;100.00;92566.28;5027767;28;19913;-75
2024/03/19 00:48:55;;;;;;;;;;;;;;;9.32;100.00;92576.97;5027521;28;19921;-76
2024/03/19 00:51:21;;;;;;;;;;;;;;;9.36;100.00;92568.63;5025818;28;19963;-75
2024/03/19 00:53:46;;;;;;;;;;;;;;;9.36;100.00;92573.75;5026548;28;19917;-75
2024/03/19 00:56:12;;;;;;;;;;;;;;;9.39;100.00;92571.78;5025295;28;20270;-76
2024/03/19 00:58:37;;;;;;;;;;;;;;;9.43;100.00;92571.13;5023587;28;19917;-75
2024/03/19 01:01:02;;;;;;;;;;;;;;;9.43;100.00;92571.13;5026296;28;19913;-75
2024/03/19 01:03:28;;;;;;;;;;;;;;;9.45;100.00;92576.03;5025637;28;19944;-75
2024/03/19 01:05:53;;;;;;;;;;;;;;;9.43;100.00;92570.31;5015797;28;20393;-75
2024/03/19 01:08:19;;;;;;;;;;;;;;;9.44;100.00;92571.91;5023694;28;19913;-75
2024/03/19 01:10:44;;;;;;;;;;;;;;;9.42;100.00;92568.75;5024317;28;19917;-75
2024/03/19 01:13:09;;;;;;;;;;;;;;;9.40;100.00;92568.22;5015468;28;19925;-76
2024/03/19 01:15:34;;;;;;;;;;;;;;;9.35;100.00;92563.72;5021258;28;19959;-76
2024/03/19 01:18:00;;;;;;;;;;;;;;;9.32;100.00;92564.16;5017009;28;19971;-75
2024/03/19 01:20:26;;;;;;;;;;;;;;;9.32;100.00;92559.03;5023348;28;19924;-75
2024/03/19 01:22:51;;;;;;;;;;;;;;;9.37;100.00;92561.72;5018552;28;20373;-75
2024/03/19 01:25:17;;;;;;;;;;;;;;;9.41;100.00;92552.63;5016747;28;19939;-75
2024/03/19 01:27:43;;;;;;;;;;;;;;;9.44;100.00;92556.53;5019662;28;19967;-75
2024/03/19 01:30:09;;;;;;;;;;;;;;;9.34;100.00;92545.00;5022800;28;19913;-75
2024/03/19 01:32:34;;;;;;;;;;;;;;;9.35;100.00;92543.22;5018008;28;20297;-75
2024/03/19 01:35:00;;;;;;;;;;;;;;;9.40;100.00;92545.13;5021251;28;19913;-75
2024/03/19 01:37:25;;;;;;;;;;;;;;;9.38;100.00;92537.66;5020343;28;19992;-75
2024/03/19 01:39:52;;;;;;;;;;;;;;;9.38;100.00;92535.09;5020961;28;19912;-75
2024/03/19 01:42:17;;;;;;;;;;;;;;;9.35;100.00;92532.97;5020974;28;19948;-75
2024/03/19 01:44:43;;;;;;;;;;;;;;;9.31;100.00;92527.50;5019495;28;19960;-76
2024/03/19 01:47:08;;;;;;;;;;;;;;;9.31;100.00;92530.06;5021325;28;20023;-75
2024/03/19 01:49:35;;;;;;;;;;;;;;;9.31;100.00;92527.50;5019088;28;19930;-75
2024/03/19 01:52:01;;;;;;;;;;;;;;;9.30;100.00;92528.50;5018499;28;19924;-75
2024/03/19 01:54:27;;;;;;;;;;;;;;;9.26;100.00;92527.38;5020296;28;20467;-76
2024/03/19 01:56:52;;;;;;;;;;;;;;;9.28;100.00;92529.72;5025387;28;19928;-77
2024/03/19 01:59:18;;;;;;;;;;;;;;;9.28;100.00;92529.72;5025356;28;19914;-77
2024/03/19 02:01:44;;;;;;;;;;;;;;;9.28;100.00;92524.59;5027045;28;19921;-76
2024/03/19 02:04:10;;;;;;;;;;;;;;;9.19;100.00;92526.69;5023965;28;19921;-77
2024/03/19 02:06:36;;;;;;;;;;;;;;;9.10;100.00;92518.50;5021347;28;19913;-76
2024/03/19 02:09:08;;;;;;;;;;;;;;;9.07;100.00;92524.84;5023957;28;20255;-75
2024/03/19 02:11:34;;;;;;;;;;;;;;;9.11;100.00;92522.63;5027464;28;19959;-75
2024/03/19 02:14:00;;;;;;;;;;;;;;;9.09;100.00;92520.28;5025479;28;19921;-75
2024/03/19 02:16:26;;;;;;;;;;;;;;;9.08;100.00;92523.84;5025857;28;19972;-75
2024/03/19 02:18:55;;;;;;;;;;;;;;;9.04;100.00;92512.50;5024605;28;19913;-75
2024/03/19 02:21:20;;;;;;;;;;;;;;;9.03;100.00;92512.72;5023080;28;19920;-75
2024/03/19 02:23:46;;;;;;;;;;;;;;;8.98;100.00;92504.88;5021744;28;19917;-75
2024/03/19 02:26:11;;;;;;;;;;;;;;;8.94;100.00;92509.66;5025458;28;19970;-76
2024/03/19 02:28:37;;;;;;;;;;;;;;;8.91;100.00;92513.44;5026306;28;20440;-76
2024/03/19 02:31:02;;;;;;;;;;;;;;;8.86;100.00;92515.88;5022970;28;20358;-76
2024/03/19 02:33:28;;;;;;;;;;;;;;;8.80;100.00;92516.72;5025939;28;20401;-76
2024/03/19 02:35:53;;;;;;;;;;;;;;;8.76;100.00;92520.72;5025984;28;20277;-76
2024/03/19 02:38:18;;;;;;;;;;;;;;;8.79;100.00;92512.59;5027443;28;20376;-76
2024/03/19 02:40:44;;;;;;;;;;;;;;;8.78;100.00;92511.03;5025489;28;20139;-75
2024/03/19 02:43:09;;;;;;;;;;;;;;;8.77;100.00;92514.59;5026879;28;20019;-75
2024/03/19 02:45:34;;;;;;;;;;;;;;;8.76;100.00;92518.16;5027834;28;20040;-75
2024/03/19 02:48:00;;;;;;;;;;;;;;;8.84;100.00;92519.63;5023764;28;19913;-75
2024/03/19 02:50:25;;;;;;;;;;;;;;;8.74;100.00;92518.34;5027324;28;19924;-76
2024/03/19 02:52:50;;;;;;;;;;;;;;;8.76;100.00;92518.16;5025272;28;19917;-77
2024/03/19 02:55:16;;;;;;;;;;;;;;;8.74;100.00;92530.41;5026428;28;20423;-77
2024/03/19 02:57:42;;;;;;;;;;;;;;;8.73;100.00;92533.94;5027115;28;20629;-77
2024/03/19 03:00:09;;;;;;;;;;;;;;;8.71;100.00;92520.56;5026755;28;19967;-76
2024/03/19 03:02:34;;;;;;;;;;;;;;;8.72;100.00;92517.81;5028205;28;19917;-76
2024/03/19 03:05:00;;;;;;;;;;;;;;;8.74;100.00;92509.91;5023794;28;19924;-76
2024/03/19 03:07:26;;;;;;;;;;;;;;;8.69;100.00;92513.91;5027764;28;19913;-76
2024/03/19 03:09:51;;;;;;;;;;;;;;;8.69;100.00;92519.00;5022329;28;19971;-76
2024/03/19 03:12:16;;;;;;;;;;;;;;;8.67;100.00;92518.44;5024994;28;20396;-75
2024/03/19 03:14:42;;;;;;;;;;;;;;;8.68;100.00;92519.22;5028547;28;20551;-75
2024/03/19 03:17:08;;;;;;;;;;;;;;;8.72;100.00;92517.00;5025353;28;19921;-74
2024/03/19 03:19:33;;;;;;;;;;;;;;;8.73;100.00;92518.56;5025043;28;19960;-74
2024/03/19 03:21:59;;;;;;;;;;;;;;;8.72;100.00;92522.94;5026959;28;19999;-74
2024/03/19 03:24:24;;;;;;;;;;;;;;;8.67;100.00;92517.66;5023815;28;19917;-75
2024/03/19 03:26:50;;;;;;;;;;;;;;;8.67;100.00;92518.44;5020913;28;20270;-74
2024/03/19 03:29:15;;;;;;;;;;;;;;;8.68;100.00;92517.47;5025515;28;19924;-74
2024/03/19 03:31:40;;;;;;;;;;;;;;;8.63;100.00;92516.53;5025574;28;19932;-75
2024/03/19 03:34:07;;;;;;;;;;;;;;;8.66;100.00;92508.44;5026530;28;19931;-77
2024/03/19 03:36:32;;;;;;;;;;;;;;;8.65;100.00;92514.53;5027350;28;20343;-75
2024/03/19 03:38:58;;;;;;;;;;;;;;;8.63;100.00;92514.75;5026522;28;19924;-75
2024/03/19 03:41:23;;;;;;;;;;;;;;;8.62;100.00;92512.41;5021678;28;19921;-75
2024/03/19 03:43:48;;;;;;;;;;;;;;;8.62;100.00;92518.31;5026445;28;19923;-75
2024/03/19 03:46:14;;;;;;;;;;;;;;;8.63;100.00;92519.88;5026333;28;20292;-75
2024/03/19 03:48:40;;;;;;;;;;;;;;;8.64;100.00;92520.63;5026463;28;20348;-75
2024/03/19 03:51:05;;;;;;;;;;;;;;;8.65;100.00;92535.00;5024965;28;19913;-75
2024/03/19 03:53:30;;;;;;;;;;;;;;;8.60;100.00;92530.53;5023864;28;19940;-75
2024/03/19 03:55:56;;;;;;;;;;;;;;;8.43;100.00;92537.97;5028137;28;19972;-75
2024/03/19 03:58:21;;;;;;;;;;;;;;;8.47;100.00;92535.78;5022466;28;20031;-75
2024/03/19 04:00:47;;;;;;;;;;;;;;;8.72;100.00;92524.69;5026097;28;19917;-75
2024/03/19 04:03:14;;;;;;;;;;;;;;;8.61;100.00;92518.53;5025060;28;19921;-75
2024/03/19 04:05:39;;;;;;;;;;;;;;;8.59;100.00;92516.16;5026693;28;19920;-75
2024/03/19 04:08:05;;;;;;;;;;;;;;;8.61;100.00;92521.09;5025684;28;19913;-73
2024/03/19 04:10:30;;;;;;;;;;;;;;;8.63;100.00;92519.88;5027245;28;20870;-73
2024/03/19 04:12:55;;;;;;;;;;;;;;;8.63;100.00;92522.44;5023834;28;19921;-72
2024/03/19 04:15:20;;;;;;;;;;;;;;;8.76;100.00;92529.19;5025785;28;19928;-73
2024/03/19 04:17:47;;;;;;;;;;;;;;;8.80;100.00;92524.41;5023439;28;19916;-73
2024/03/19 04:20:15;;;;;;;;;;;;;;;8.90;100.00;92537.50;5026140;28;19913;-73
2024/03/19 04:22:40;;;;;;;;;;;;;;;8.93;100.00;92539.63;5024331;28;19931;-73
2024/03/19 04:25:07;;;;;;;;;;;;;;;8.93;100.00;92537.03;5022947;28;19913;-73
2024/03/19 04:27:33;;;;;;;;;;;;;;;8.97;100.00;92536.63;5024101;28;20978;-73
2024/03/19 04:29:58;;;;;;;;;;;;;;;9.00;100.00;92549.00;5026036;28;19948;-73
2024/03/19 04:32:23;;;;;;;;;;;;;;;8.81;100.00;92513.16;5022122;28;19912;-73
2024/03/19 04:34:49;;;;;;;;;;;;;;;9.01;100.00;92543.66;5022828;28;19917;-75
2024/03/19 04:37:14;;;;;;;;;;;;;;;8.94;100.00;92537.84;5026970;28;20261;-75
2024/03/19 04:39:39;;;;;;;;;;;;;;;8.93;100.00;92537.03;5025509;28;19913;-75
2024/03/19 04:42:05;;;;;;;;;;;;;;;8.91;100.00;92533.94;5025014;28;19912;-75
2024/03/19 04:44:31;;;;;;;;;;;;;;;8.91;100.00;92539.06;5023191;28;19917;-75
2024/03/19 04:46:57;;;;;;;;;;;;;;;8.91;100.00;92540.81;5024777;28;19913;-75
2024/03/19 04:49:22;;;;;;;;;;;;;;;8.92;100.00;92532.13;5025682;28;19923;-75
2024/03/19 04:51:48;;;;;;;;;;;;;;;8.95;100.00;92536.84;5023723;28;20011;-75
2024/03/19 04:54:13;;;;;;;;;;;;;;;8.93;100.00;92542.16;5025208;28;19943;-75
2024/03/19 04:56:38;;;;;;;;;;;;;;;8.92;100.00;92542.38;5024800;28;20002;-75
2024/03/19 04:59:04;;;;;;;;;;;;;;;8.92;100.00;92548.28;5023054;28;19920;-75
2024/03/19 05:01:29;;;;;;;;;;;;;;;8.95;100.00;92549.66;5024599;28;20415;-75
2024/03/19 05:03:55;;;;;;;;;;;;;;;8.94;100.00;92555.78;5027215;28;19917;-75
2024/03/19 05:06:20;;;;;;;;;;;;;;;8.95;100.00;92552.97;5025272;28;19917;-75
2024/03/19 05:08:45;;;;;;;;;;;;;;;8.94;100.00;92560.91;5023814;28;19921;-75
2024/03/19 05:11:11;;;;;;;;;;;;;;;8.92;100.00;92555.97;5025066;28;19924;-75
2024/03/19 05:13:37;;;;;;;;;;;;;;;8.88;100.00;92561.75;5025643;28;19928;-75
2024/03/19 05:16:02;;;;;;;;;;;;;;;8.86;100.00;92556.84;5024537;28;19964;-75
2024/03/19 05:18:28;;;;;;;;;;;;;;;8.91;100.00;92564.66;5023032;28;19952;-75
2024/03/19 05:20:53;;;;;;;;;;;;;;;8.93;100.00;92570.34;5026157;28;19920;-75
2024/03/19 05:23:19;;;;;;;;;;;;;;;8.94;100.00;92566.03;5023825;28;20034;-75
2024/03/19 05:25:44;;;;;;;;;;;;;;;8.98;100.00;92569.69;5020858;28;19924;-75
2024/03/19 05:28:10;;;;;;;;;;;;;;;8.97;100.00;92565.56;5022552;28;20024;-75
2024/03/19 05:30:36;;;;;;;;;;;;;;;8.97;100.00;92572.50;5022989;28;19925;-75
2024/03/19 05:33:01;;;;;;;;;;;;;;;8.99;100.00;92568.72;5023833;28;19924;-75
2024/03/19 05:35:26;;;;;;;;;;;;;;;9.04;100.00;92571.41;5028739;28;19917;-75
2024/03/19 05:37:52;;;;;;;;;;;;;;;9.07;100.00;92577.88;5038802;28;19917;-76
2024/03/19 05:40:18;;;;;;;;;;;;;;;9.09;100.00;92573.31;5034030;28;19917;-76
2024/03/19 05:42:44;;;;;;;;;;;;;;;9.12;100.00;92574.66;5025999;28;19924;-76
2024/03/19 05:45:10;;;;;;;;;;;;;;;9.14;100.00;92578.59;5024022;28;19970;-76
2024/03/19 05:47:36;;;;;;;;;;;;;;;9.08;100.00;92585.34;5025535;28;19917;-76
2024/03/19 05:50:02;;;;;;;;;;;;;;;8.93;100.00;92585.72;5023964;28;19998;-76
2024/03/19 05:52:29;;;;;;;;;;;;;;;8.82;100.00;92583.88;5031854;28;19921;-76
2024/03/19 05:54:54;;;;;;;;;;;;;;;8.77;100.00;92587.09;5037191;28;19965;-76
2024/03/19 05:57:19;;;;;;;;;;;;;;;8.36;100.00;92593.53;5047933;28;19917;-76
2024/03/19 05:59:45;;;;;;;;;;;;;;;8.44;100.00;92590.72;5024601;28;19928;-75
2024/03/19 06:02:11;;;;;;;;;;;;;;;8.36;100.00;92594.34;5024393;28;20288;-75
2024/03/19 06:04:37;;;;;;;;;;;;;;;8.20;100.00;92598.19;5024636;28;19913;-75
2024/03/19 06:07:02;;;;;;;;;;;;;;;7.91;100.00;92597.06;5024312;28;19921;-75
2024/03/19 06:09:30;;;;;;;;;;;;;;;8.06;100.00;92594.19;5038800;28;19966;-76
2024/03/19 06:11:56;;;;;;;;;;;;;;;8.05;100.00;92600.31;5041323;28;19931;-75
2024/03/19 06:14:22;;;;;;;;;;;;;;;8.23;100.00;92599.56;5027302;28;20293;-76
2024/03/19 06:16:47;;;;;;;;;;;;;;;8.22;100.00;92603.91;5038624;28;20479;-76
2024/03/19 06:19:16;;;;;;;;;;;;;;;8.25;100.00;92605.25;5041664;28;19970;-76
2024/03/19 06:21:43;;;;;;;;;;;;;;;8.55;100.00;92607.97;5034598;28;19928;-75
2024/03/19 06:24:08;;;;;;;;;;;;;;;8.46;100.00;92613.56;5039569;28;19978;-75
2024/03/19 06:26:34;;;;;;;;;;;;;;;8.38;100.00;92605.13;5031720;28;20360;-75
2024/03/19 06:28:59;;;;;;;;;;;;;;;8.26;100.00;92610.19;5030349;28;20320;-75
2024/03/19 06:31:24;;;;;;;;;;;;;;;8.52;100.00;92605.81;5039596;28;19921;-75
2024/03/19 06:33:50;;;;;;;;;;;;;;;8.46;100.00;92616.13;5039645;28;19967;-75
2024/03/19 06:36:15;;;;;;;;;;;;;;;8.57;100.00;92614.66;5044295;28;19943;-76
2024/03/19 06:38:42;;;;;;;;;;;;;;;8.64;100.00;92617.94;5043804;28;20642;-75
2024/03/19 06:41:07;;;;;;;;;;;;;;;8.66;100.00;92624.41;5045979;28;19924;-76
2024/03/19 06:43:33;;;;;;;;;;;;;;;8.62;100.00;92633.53;5041896;28;19917;-76
2024/03/19 06:45:58;;;;;;;;;;;;;;;8.72;100.00;92632.22;5042363;28;19924;-74
2024/03/19 06:48:24;;;;;;;;;;;;;;;8.71;100.00;92631.47;5041787;28;19917;-74
2024/03/19 06:50:49;;;;;;;;;;;;;;;8.89;100.00;92630.66;5040546;28;20420;-74
2024/03/19 06:53:15;;;;;;;;;;;;;;;8.54;100.00;92633.78;5040649;28;19917;-73
2024/03/19 06:55:41;;;;;;;;;;;;;;;8.60;100.00;92638.06;5042841;28;19912;-73
2024/03/19 06:58:06;;;;;;;;;;;;;;;8.18;100.00;92637.81;5044258;28;19960;-73
2024/03/19 07:00:32;;;;;;;;;;;;;;;7.95;100.00;92639.13;5042014;28;19963;-73
2024/03/19 07:02:58;;;;;;;;;;;;;;;7.75;100.00;92642.59;5039195;28;20439;-73
2024/03/19 07:05:23;;;;;;;;;;;;;;;7.94;100.00;92640.13;5044628;28;19916;-73
2024/03/19 07:07:52;;;;;;;;;;;;;;;7.90;100.00;92649.97;5045933;28;19913;-73
2024/03/19 07:10:18;;;;;;;;;;;;;;;7.76;100.00;92651.84;5044017;28;19916;-73
2024/03/19 07:12:43;;;;;;;;;;;;;;;8.03;100.00;92646.56;5041464;28;19966;-73
2024/03/19 07:15:14;;;;;;;;;;;;;;;8.16;100.00;92650.78;5044743;28;19917;-73
2024/03/19 07:17:40;;;;;;;;;;;;;;;8.29;100.00;92655.81;5040348;28;19931;-73
2024/03/19 07:20:12;;;;;;;;;;;;;;;8.07;100.00;92645.16;5037103;28;19917;-72
2024/03/19 07:22:38;;;;;;;;;;;;;;;8.12;100.00;92647.88;5039978;28;19920;-72
2024/03/19 07:25:05;;;;;;;;;;;;;;;7.89;100.00;92661.19;5035682;28;19956;-73
2024/03/19 07:27:31;;;;;;;;;;;;;;;7.40;100.00;92658.31;5035446;28;19932;-72
2024/03/19 07:29:57;;;;;;;;;;;;;;;6.90;100.00;92670.66;5038691;28;19922;-72
2024/03/19 07:32:22;;;;;;;;;;;;;;;6.64;100.00;92666.38;5044786;28;20011;-71
2024/03/19 07:34:48;;;;;;;;;;;;;;;6.53;100.00;92672.88;5043960;28;19975;-71
2024/03/19 07:37:13;;;;;;;;;;;;;;;6.25;100.00;92679.75;5036154;28;19921;-72
2024/03/19 07:39:38;;;;;;;;;;;;;;;6.41;100.00;92681.13;5043682;28;20384;-72
2024/03/19 07:42:04;;;;;;;;;;;;;;;6.46;100.00;92683.09;5036253;28;20472;-72
2024/03/19 07:44:29;;;;;;;;;;;;;;;6.13;100.00;92684.66;5044053;28;19917;-74
2024/03/19 07:46:54;;;;;;;;;;;;;;;6.20;100.00;92688.97;5041370;28;19920;-74
2024/03/19 07:49:20;;;;;;;;;;;;;;;5.97;100.00;92690.88;5046613;28;19912;-74
2024/03/19 07:51:45;;;;;;;;;;;;;;;6.09;100.00;92698.75;5037516;28;19970;-74
2024/03/19 07:54:10;;;;;;;;;;;;;;;6.15;100.00;92700.53;5036563;28;19923;-74
2024/03/19 07:56:40;;;;;;;;;;;;;;;6.05;100.00;92704.44;5043701;28;19919;-74
2024/03/19 07:59:05;;;;;;;;;;;;;;;5.91;100.00;92706.13;5039392;28;19916;-74
2024/03/19 08:01:31;;;;;;;;;;;;;;;5.92;100.00;92711.06;5038764;28;19922;-74
2024/03/19 08:03:56;;;;;;;;;;;;;;;5.97;100.00;92710.50;5039557;28;19920;-73
2024/03/19 08:06:21;;;;;;;;;;;;;;;5.96;100.00;92714.78;5042793;28;19920;-74
2024/03/19 08:08:47;;;;;;;;;;;;;;;6.13;100.00;92715.25;5034806;28;20337;-74
2024/03/19 08:11:12;;;;;;;;;;;;;;;6.34;100.00;92721.13;5043407;28;19958;-74
2024/03/19 08:13:38;;;;;;;;;;;;;;;6.10;100.00;92717.38;5031690;28;19917;-73
2024/03/19 08:16:03;;;;;;;;;;;;;;;6.23;100.00;92719.16;5043707;28;20253;-73
2024/03/19 08:18:29;;;;;;;;;;;;;;;6.22;100.00;92732.91;5041841;28;20285;-73
2024/03/19 08:20:54;;;;;;;;;;;;;;;6.33;100.00;92728.97;5040545;28;19917;-73
2024/03/19 08:23:20;;;;;;;;;;;;;;;6.35;100.00;92730.34;5042637;28;19917;-73
2024/03/19 08:25:46;;;;;;;;;;;;;;;6.46;100.00;92721.34;5031530;28;19979;-73
2024/03/19 08:28:11;;;;;;;;;;;;;;;6.04;100.00;92726.59;5040974;28;20361;-73
2024/03/19 08:30:37;;;;;;;;;;;;;;;6.07;100.00;92726.19;5043663;28;19965;-73
2024/03/19 08:33:02;;;;;;;;;;;;;;;5.94;100.00;92724.41;5034707;28;20395;-73
2024/03/19 08:35:28;;;;;;;;;;;;;;;6.11;100.00;92726.63;5037321;28;19913;-73
2024/03/19 08:37:53;;;;;;;;;;;;;;;6.11;100.00;92732.50;5039287;28;19923;-74
2024/03/19 08:40:19;;;;;;;;;;;;;;;6.20;100.00;92732.31;5038132;28;20418;-74
2024/03/19 08:42:44;;;;;;;;;;;;;;;6.37;100.00;92730.97;5031509;28;20386;-74
2024/03/19 08:45:12;;;;;;;;;;;;;;;6.51;100.00;92731.75;5040582;28;19925;-74
2024/03/19 08:47:41;;;;;;;;;;;;;;;6.47;100.00;92734.91;5046333;28;19974;-74
2024/03/19 08:50:07;;;;;;;;;;;;;;;6.04;100.00;92708.75;5031351;28;19937;-73
2024/03/19 08:52:36;;;;;;;;;;;;;;;5.80;100.00;92741.44;5044797;28;19917;-73
2024/03/19 08:55:02;;;;;;;;;;;;;;;5.52;100.00;92747.41;5034038;28;19929;-73
2024/03/19 08:57:27;;;;;;;;;;;;;;;5.48;100.00;92749.53;5035486;28;19917;-73
2024/03/19 08:59:53;;;;;;;;;;;;;;;5.26;100.00;92742.94;5038877;28;19939;-73
2024/03/19 09:02:18;;;;;;;;;;;;;;;5.19;100.00;92750.56;5035385;28;20285;-73
2024/03/19 09:04:44;;;;;;;;;;;;;;;5.56;100.00;92748.56;5028187;28;20008;-74
2024/03/19 09:07:10;;;;;;;;;;;;;;;5.45;100.00;92751.66;5039537;28;19969;-74
2024/03/19 09:09:35;;;;;;;;;;;;;;;5.57;100.00;92755.28;5043284;28;19913;-73
2024/03/19 09:12:00;;;;;;;;;;;;;;;5.58;100.00;92750.94;5042524;28;19924;-73
2024/03/19 09:14:26;;;;;;;;;;;;;;;5.34;100.00;92756.31;5037670;28;19920;-74
2024/03/19 09:16:51;;;;;;;;;;;;;;;5.41;100.00;92753.81;5040298;28;20295;-74
2024/03/19 09:19:16;;;;;;;;;;;;;;;5.41;100.00;92751.25;5031053;28;19960;-73
2024/03/19 09:21:42;;;;;;;;;;;;;;;5.56;100.00;92750.34;5033987;28;19921;-73
2024/03/19 09:24:07;;;;;;;;;;;;;;;5.48;100.00;92757.16;5031675;28;19920;-73
2024/03/19 09:26:33;;;;;;;;;;;;;;;5.68;100.00;92753.94;5038407;28;19913;-74
2024/03/19 09:28:58;;;;;;;;;;;;;;;5.63;100.00;92751.16;5042205;28;20016;-73
2024/03/19 09:31:24;;;;;;;;;;;;;;;5.50;100.00;92758.75;5040220;28;19923;-73
2024/03/19 09:33:49;;;;;;;;;;;;;;;5.77;100.00;92759.63;5041516;28;20327;-73
2024/03/19 09:36:15;;;;;;;;;;;;;;;5.75;100.00;92753.97;5043519;28;19917;-73
2024/03/19 09:38:42;;;;;;;;;;;;;;;5.98;100.00;92763.81;5040894;28;19913;-73
2024/03/19 09:41:08;;;;;;;;;;;;;;;5.81;100.00;92765.94;5040004;28;20012;-73
2024/03/19 09:43:35;;;;;;;;;;;;;;;5.85;100.00;92763.78;5043638;28;19913;-73
2024/03/19 09:46:00;;;;;;;;;;;;;;;5.94;100.00;92765.19;5045261;28;19912;-74
2024/03/19 09:48:26;;;;;;;;;;;;;;;5.69;100.00;92767.47;5031215;28;19925;-73
2024/03/19 09:50:52;;;;;;;;;;;;;;;5.92;100.00;92761.25;5045472;28;19978;-73
2024/03/19 09:53:19;;;;;;;;;;;;;;;5.93;100.00;92768.69;5038056;28;19917;-73
2024/03/19 09:55:45;;;;;;;;;;;;;;;6.13;100.00;92771.34;5040977;28;19954;-74
2024/03/19 09:58:11;;;;;;;;;;;;;;;6.29;100.00;92766.84;5040997;28;20377;-73
2024/03/19 10:00:37;;;;;;;;;;;;;;;6.45;100.00;92773.38;5036168;28;19953;-73
2024/03/19 10:03:02;;;;;;;;;;;;;;;6.20;100.00;92775.69;5043596;28;19955;-73
2024/03/19 10:05:28;;;;;;;;;;;;;;;6.26;100.00;92774.91;5046077;28;19916;-73
2024/03/19 10:07:53;;;;;;;;;;;;;;;5.92;100.00;92769.69;5033188;28;19920;-73
2024/03/19 10:10:19;;;;;;;;;;;;;;;5.50;100.00;92776.59;5041298;28;19923;-73
2024/03/19 10:12:44;;;;;;;;;;;;;;;5.20;100.00;92788.56;5036132;28;19963;-73
2024/03/19 10:15:17;;;;;;;;;;;;;;;5.03;100.00;92802.56;5039040;28;19924;-73
2024/03/19 10:17:43;;;;;;;;;;;;;;;5.26;100.00;92792.13;5044784;28;20062;-74
2024/03/19 10:20:11;;;;;;;;;;;;;;;5.40;100.00;92798.09;5049394;28;20432;-74
2024/03/19 10:22:36;;;;;;;;;;;;;;;5.71;100.00;92790.97;5044219;28;19956;-74
2024/03/19 10:25:03;;;;;;;;;;;;;;;5.89;100.00;92781.03;5032022;28;20006;-74
2024/03/19 10:27:29;;;;;;;;;;;;;;;5.73;100.00;92784.72;5044148;28;19920;-74
2024/03/19 10:29:56;;;;;;;;;;;;;;;5.76;100.00;92781.00;5045187;28;19917;-74
2024/03/19 10:32:22;;;;;;;;;;;;;;;6.19;100.00;92784.28;5037384;28;19921;-74
2024/03/19 10:34:49;;;;;;;;;;;;;;;6.12;100.00;92776.63;5041820;28;19925;-74
2024/03/19 10:37:17;;;;;;;;;;;;;;;6.26;100.00;92788.44;5045891;28;19913;-74
2024/03/19 10:39:43;;;;;;;;;;;;;;;6.51;100.00;92782.00;5039415;28;19923;-74
2024/03/19 10:42:11;;;;;;;;;;;;;;;6.65;100.00;92777.69;5046944;28;19917;-74
2024/03/19 10:44:38;;;;;;;;;;;;;;;6.76;100.00;92786.53;5048803;28;20418;-73
2024/03/19 10:47:05;;;;;;;;;;;;;;;6.71;100.00;92774.34;5043298;28;19921;-73
2024/03/19 10:49:32;;;;;;;;;;;;;;;6.86;100.00;92770.81;5043107;28;19917;-74
2024/03/19 10:52:16;;;;;;;;;;;;;;;7.24;100.00;92765.06;5047047;28;20004;-74
2024/03/19 10:54:43;;;;;;;;;;;;;;;7.43;100.00;92778.00;5045866;28;20226;-74
2024/03/19 10:57:15;;;;;;;;;;;;;;;7.62;100.00;92779.72;5041896;28;19971;-74
2024/03/19 10:59:40;;;;;;;;;;;;;;;7.45;100.00;92784.47;5039337;28;20343;-73
2024/03/19 11:02:07;;;;;;;;;;;;;;;7.83;100.00;92770.19;5046296;28;19913;-74
2024/03/19 11:04:33;;;;;;;;;;;;;;;8.12;100.00;92765.56;5044983;28;19912;-74
2024/03/19 11:07:02;;;;;;;;;;;;;;;8.36;100.00;92760.69;5040929;28;19923;-74
2024/03/19 11:09:28;;;;;;;;;;;;;;;8.09;100.00;92768.50;5046477;28;20273;-71
2024/03/19 11:11:54;;;;;;;;;;;;;;;8.33;100.00;92768.75;5038260;28;19924;-71
2024/03/19 11:14:20;;;;;;;;;;;;;;;8.51;100.00;92767.25;5038839;28;19917;-73
2024/03/19 11:16:46;;;;;;;;;;;;;;;8.74;100.00;92756.50;5040068;28;19923;-74
2024/03/19 11:19:21;;;;;;;;;;;;;;;8.63;100.00;92768.22;5046172;28;19917;-73
2024/03/19 11:21:53;;;;;;;;;;;;;;;8.79;100.00;92758.44;5038016;28;19917;-73
2024/03/19 11:24:21;;;;;;;;;;;;;;;8.88;98.13;92767.41;5042201;28;19917;-73
2024/03/19 11:26:47;;;;;;;;;;;;;;;9.07;98.01;92758.00;5039855;28;19921;-73
2024/03/19 11:29:14;;;;;;;;;;;;;;;8.82;98.63;92758.81;5040378;28;19924;-73
2024/03/19 11:31:43;;;;;;;;;;;;;;;8.91;100.00;92751.66;5047978;28;19923;-73
2024/03/19 11:34:12;;;;;;;;;;;;;;;8.51;100.00;92747.59;5042064;28;19942;-73
2024/03/19 11:36:38;;;;;;;;;;;;;;;8.52;100.00;92746.63;5039661;28;19921;-73
2024/03/19 11:39:07;;;;;;;;;;;;;;;8.65;100.00;92742.38;5045842;28;20348;-74
2024/03/19 11:41:32;;;;;;;;;;;;;;;8.75;98.44;92749.63;5042211;28;19913;-74
2024/03/19 11:43:59;;;;;;;;;;;;;;;8.93;100.00;92738.59;5044753;28;19913;-73
2024/03/19 11:46:25;;;;;;;;;;;;;;;8.95;100.00;92739.97;5037701;28;19920;-74
2024/03/19 11:48:50;;;;;;;;;;;;;;;9.26;100.00;92729.81;5042888;28;19936;-74
2024/03/19 11:51:16;;;;;;;;;;;;;;;9.02;99.62;92736.59;5045760;28;20359;-73
2024/03/19 11:53:41;;;;;;;;;;;;;;;9.50;100.00;92719.72;5041717;28;19921;-73
2024/03/19 11:56:09;;;;;;;;;;;;;;;9.58;97.53;92728.91;5044311;28;19917;-73
2024/03/19 11:58:35;;;;;;;;;;;;;;;9.81;98.96;92714.63;5043048;28;19916;-74
2024/03/19 12:01:01;;;;;;;;;;;;;;;9.36;94.91;92727.56;5042754;28;19923;-74
2024/03/19 12:03:26;;;;;;;;;;;;;;;9.46;100.00;92711.69;5038997;28;19920;-74
2024/03/19 12:05:51;;;;;;;;;;;;;;;9.95;100.00;92702.41;5042728;28;20287;-74
2024/03/19 12:08:17;;;;;;;;;;;;;;;10.18;89.49;92706.81;5042475;28;19916;-74
2024/03/19 12:10:43;;;;;;;;;;;;;;;9.68;96.31;92700.19;5042060;28;19917;-74
2024/03/19 12:13:12;;;;;;;;;;;;;;;9.92;96.15;92693.38;5032418;28;19961;-74
2024/03/19 12:15:39;;;;;;;;;;;;;;;10.02;91.90;92705.66;5042254;28;19948;-74
2024/03/19 12:18:07;;;;;;;;;;;;;;;10.09;99.14;92687.63;5044135;28;20740;-73
2024/03/19 12:20:34;;;;;;;;;;;;;;;10.08;94.60;92699.66;5043295;28;19962;-74
2024/03/19 12:23:00;;;;;;;;;;;;;;;9.56;88.17;92705.25;5040560;28;19916;-73
2024/03/19 12:25:27;;;;;;;;;;;;;;;9.46;94.58;92695.50;5039594;28;19980;-73
2024/03/19 12:27:53;;;;;;;;;;;;;;;9.58;92.29;92695.59;5041242;28;19921;-73
2024/03/19 12:30:19;;;;;;;;;;;;;;;9.95;85.61;92687.78;5042338;28;19997;-73
2024/03/19 12:32:48;;;;;;;;;;;;;;;9.85;89.28;92693.44;5038841;28;19927;-73
2024/03/19 12:35:14;;;;;;;;;;;;;;;9.84;81.25;92694.47;5038327;28;20364;-73
2024/03/19 12:37:40;;;;;;;;;;;;;;;10.04;79.63;92693.41;5039630;28;20276;-73
2024/03/19 12:40:10;;;;;;;;;;;;;;;9.99;86.08;92685.56;5041056;28;19924;-74